createdAt,value
2023-08-17T00:00:37.589Z,4.70
2023-08-17T00:01:37.697Z,4.30
2023-08-17T00:02:37.557Z,4.90
2023-08-17T00:03:37.604Z,4.70
2023-08-17T00:04:37.516Z,8.80
2023-08-17T00:05:37.525Z,5.70
2023-08-17T00:06:37.493Z,5.60
2023-08-17T00:07:37.498Z,7.00
2023-08-17T00:08:37.494Z,4.60
2023-08-17T00:09:37.485Z,5.30
2023-08-17T00:10:37.451Z,4.20
2023-08-17T00:11:37.449Z,6.30
2023-08-17T00:12:37.430Z,7.20
2023-08-17T00:13:37.410Z,5.50
2023-08-17T00:14:37.419Z,4.50
2023-08-17T00:15:37.406Z,6.80
2023-08-17T00:16:37.420Z,7.50
2023-08-17T00:17:38.224Z,5.70
2023-08-17T00:18:37.374Z,6.30
2023-08-17T00:19:37.401Z,6.80
2023-08-17T00:20:37.422Z,6.50
2023-08-17T00:21:37.425Z,6.80
2023-08-17T00:22:37.338Z,7.40
2023-08-17T00:23:37.323Z,4.40
2023-08-17T00:24:37.306Z,5.50
2023-08-17T00:25:37.352Z,6.50
2023-08-17T00:26:37.342Z,3.40
2023-08-17T00:27:37.357Z,4.80
2023-08-17T00:28:37.234Z,5.20
2023-08-17T00:29:37.219Z,5.00
2023-08-17T00:30:37.362Z,5.10
2023-08-17T00:31:37.246Z,3.80
2023-08-17T00:32:37.226Z,4.90
2023-08-17T00:33:37.220Z,7.20
2023-08-17T00:34:37.210Z,5.70
2023-08-17T00:35:37.185Z,6.30
2023-08-17T00:36:37.148Z,3.50
2023-08-17T00:37:37.163Z,3.40
2023-08-17T00:38:37.441Z,4.20
2023-08-17T00:39:37.162Z,4.90
2023-08-17T00:40:37.118Z,3.10
2023-08-17T00:41:37.147Z,3.40
2023-08-17T00:42:37.473Z,4.70
2023-08-17T00:43:37.072Z,4.00
2023-08-17T00:44:37.073Z,3.00
2023-08-17T00:45:37.198Z,3.00
2023-08-17T00:46:37.039Z,6.10
2023-08-17T00:47:37.018Z,4.60
2023-08-17T00:48:37.022Z,3.50
2023-08-17T00:49:37.001Z,4.50
2023-08-17T00:50:37.007Z,4.40
2023-08-17T00:51:36.987Z,4.50
2023-08-17T00:52:37.034Z,4.60
2023-08-17T00:53:36.989Z,3.20
2023-08-17T00:54:37.016Z,6.40
2023-08-17T00:55:36.949Z,3.40
2023-08-17T00:56:36.907Z,3.60
2023-08-17T00:57:37.680Z,4.00
2023-08-17T00:58:36.950Z,5.60
2023-08-17T00:59:37.383Z,3.50
2023-08-17T01:00:36.895Z,4.70
2023-08-17T01:01:36.934Z,4.80
2023-08-17T01:02:36.868Z,4.60
2023-08-17T01:03:36.869Z,5.00
2023-08-17T01:04:36.848Z,6.90
2023-08-17T01:05:36.833Z,4.10
2023-08-17T01:06:36.825Z,6.20
2023-08-17T01:07:37.752Z,5.50
2023-08-17T01:08:36.797Z,4.70
2023-08-17T01:09:36.765Z,6.60
2023-08-17T01:10:36.776Z,5.60
2023-08-17T01:11:36.876Z,5.30
2023-08-17T01:12:36.931Z,6.20
2023-08-17T01:13:36.720Z,5.30
2023-08-17T01:14:36.732Z,4.20
2023-08-17T01:15:36.720Z,4.80
2023-08-17T01:16:36.691Z,5.30
2023-08-17T01:17:36.731Z,5.70
2023-08-17T01:18:36.758Z,4.90
2023-08-17T01:19:36.655Z,5.10
2023-08-17T01:20:36.672Z,4.30
2023-08-17T01:21:36.647Z,5.80
2023-08-17T01:22:36.625Z,7.30
2023-08-17T01:23:36.629Z,7.10
2023-08-17T01:24:36.666Z,6.00
2023-08-17T01:25:36.869Z,8.40
2023-08-17T01:26:36.596Z,3.40
2023-08-17T01:27:36.584Z,6.30
2023-08-17T01:28:36.576Z,5.40
2023-08-17T01:29:36.550Z,5.20
2023-08-17T01:30:36.535Z,6.00
2023-08-17T01:31:36.555Z,6.10
2023-08-17T01:32:36.587Z,4.90
2023-08-17T01:33:36.553Z,5.60
2023-08-17T01:34:36.496Z,4.60
2023-08-17T01:35:36.485Z,4.00
2023-08-17T01:36:36.466Z,6.20
2023-08-17T01:37:36.508Z,3.70
2023-08-17T01:38:36.484Z,6.50
2023-08-17T01:39:37.235Z,3.30
2023-08-17T01:40:36.458Z,10.70
2023-08-17T01:41:36.442Z,5.30
2023-08-17T01:42:36.398Z,4.50
2023-08-17T01:43:36.402Z,5.90
2023-08-17T01:44:36.365Z,7.90
2023-08-17T01:45:36.372Z,6.10
2023-08-17T01:46:36.377Z,6.20
2023-08-17T01:47:36.362Z,2.90
2023-08-17T01:48:36.349Z,7.00
2023-08-17T01:49:36.309Z,5.80
2023-08-17T01:50:36.331Z,5.70
2023-08-17T01:51:36.312Z,10.10
2023-08-17T01:52:36.349Z,5.60
2023-08-17T01:53:36.269Z,5.70
2023-08-17T01:54:36.262Z,4.70
2023-08-17T01:55:36.264Z,7.50
2023-08-17T01:56:36.243Z,5.30
2023-08-17T01:57:36.227Z,7.90
2023-08-17T01:58:36.316Z,6.90
2023-08-17T01:59:36.237Z,5.40
2023-08-17T02:00:36.231Z,7.30
2023-08-17T02:01:36.199Z,6.20
2023-08-17T02:02:36.285Z,6.50
2023-08-17T02:03:36.178Z,5.30
2023-08-17T02:04:36.195Z,7.00
2023-08-17T02:05:36.192Z,8.90
2023-08-17T02:06:43.755Z,7.30
2023-08-17T02:07:36.127Z,6.40
2023-08-17T02:08:36.106Z,3.10
2023-08-17T02:09:36.094Z,4.70
2023-08-17T02:10:36.073Z,6.00
2023-08-17T02:11:36.464Z,13.80
2023-08-17T02:12:36.118Z,5.30
2023-08-17T02:13:36.038Z,6.00
2023-08-17T02:14:36.065Z,7.60
2023-08-17T02:15:36.075Z,5.40
2023-08-17T02:16:36.054Z,7.20
2023-08-17T02:17:36.068Z,9.50
2023-08-17T02:18:36.449Z,8.60
2023-08-17T02:19:36.729Z,5.50
2023-08-17T02:20:36.045Z,6.70
2023-08-17T02:21:35.981Z,7.20
2023-08-17T02:22:35.958Z,14.50
2023-08-17T02:23:35.944Z,8.80
2023-08-17T02:24:35.951Z,11.70
2023-08-17T02:25:35.894Z,11.50
2023-08-17T02:26:35.905Z,6.90
2023-08-17T02:27:35.904Z,4.40
2023-08-17T02:28:35.914Z,4.70
2023-08-17T02:29:36.614Z,7.60
2023-08-17T02:30:35.997Z,8.70
2023-08-17T02:31:35.860Z,4.80
2023-08-17T02:32:35.885Z,7.30
2023-08-17T02:33:35.834Z,7.90
2023-08-17T02:34:35.820Z,6.20
2023-08-17T02:35:35.821Z,5.70
2023-08-17T02:36:36.447Z,10.60
2023-08-17T02:37:35.769Z,4.60
2023-08-17T02:38:35.768Z,5.60
2023-08-17T02:39:35.769Z,4.00
2023-08-17T02:40:36.522Z,6.30
2023-08-17T02:41:35.764Z,4.80
2023-08-17T02:42:35.718Z,5.30
2023-08-17T02:43:35.714Z,4.90
2023-08-17T02:44:35.711Z,7.40
2023-08-17T02:45:35.711Z,8.80
2023-08-17T02:46:35.737Z,8.70
2023-08-17T02:47:35.686Z,6.30
2023-08-17T02:48:35.686Z,6.80
2023-08-17T02:49:35.633Z,6.30
2023-08-17T02:50:35.623Z,8.60
2023-08-17T02:51:35.645Z,5.40
2023-08-17T02:52:35.607Z,6.60
2023-08-17T02:53:35.579Z,4.90
2023-08-17T02:54:35.637Z,4.80
2023-08-17T02:55:35.595Z,5.50
2023-08-17T02:56:35.575Z,4.60
2023-08-17T02:57:35.541Z,6.30
2023-08-17T02:58:35.562Z,6.70
2023-08-17T02:59:35.521Z,15.80
2023-08-17T03:00:35.539Z,11.20
2023-08-17T03:01:36.346Z,8.10
2023-08-17T03:02:35.672Z,8.80
2023-08-17T03:03:35.614Z,5.20
2023-08-17T03:04:35.484Z,8.40
2023-08-17T03:05:35.477Z,8.20
2023-08-17T03:06:35.473Z,8.50
2023-08-17T03:07:35.427Z,8.60
2023-08-17T03:08:35.527Z,13.80
2023-08-17T03:09:35.404Z,23.90
2023-08-17T03:10:35.398Z,31.90
2023-08-17T03:11:35.416Z,38.60
2023-08-17T03:12:35.531Z,73.80
2023-08-17T03:13:35.368Z,61.20
2023-08-17T03:14:35.390Z,40.00
2023-08-17T03:15:35.394Z,51.30
2023-08-17T03:16:35.373Z,18.60
2023-08-17T03:17:35.357Z,33.30
2023-08-17T03:18:35.349Z,46.20
2023-08-17T03:19:35.321Z,47.10
2023-08-17T03:20:36.091Z,55.20
2023-08-17T03:21:35.326Z,34.10
2023-08-17T03:22:35.279Z,28.60
2023-08-17T03:23:35.248Z,27.30
2023-08-17T03:24:35.261Z,44.30
2023-08-17T03:25:35.237Z,31.60
2023-08-17T03:26:35.351Z,34.60
2023-08-17T03:27:35.269Z,34.90
2023-08-17T03:28:35.195Z,40.40
2023-08-17T03:29:35.233Z,26.50
2023-08-17T03:30:35.222Z,20.10
2023-08-17T03:31:35.197Z,20.80
2023-08-17T03:32:35.165Z,25.40
2023-08-17T03:33:36.036Z,28.80
2023-08-17T03:34:35.146Z,18.60
2023-08-17T03:35:35.105Z,18.50
2023-08-17T03:36:35.105Z,25.90
2023-08-17T03:37:35.106Z,20.30
2023-08-17T03:38:35.105Z,20.20
2023-08-17T03:39:35.122Z,15.00
2023-08-17T03:40:35.912Z,17.80
2023-08-17T03:41:35.062Z,13.90
2023-08-17T03:42:35.928Z,10.70
2023-08-17T03:43:35.046Z,11.40
2023-08-17T03:44:35.328Z,18.90
2023-08-17T03:45:35.014Z,13.40
2023-08-17T03:46:35.021Z,15.20
2023-08-17T03:47:35.088Z,9.20
2023-08-17T03:48:34.977Z,13.70
2023-08-17T03:49:34.970Z,6.80
2023-08-17T03:50:34.954Z,8.80
2023-08-17T03:51:35.663Z,8.50
2023-08-17T03:52:34.995Z,10.70
2023-08-17T03:53:34.915Z,11.60
2023-08-17T03:54:34.949Z,9.10
2023-08-17T03:55:34.895Z,11.60
2023-08-17T03:56:35.859Z,8.90
2023-08-17T03:57:35.924Z,12.50
2023-08-17T03:58:34.862Z,13.30
2023-08-17T03:59:34.840Z,10.40
2023-08-17T04:00:34.844Z,11.20
2023-08-17T04:01:35.680Z,10.50
2023-08-17T04:02:34.881Z,11.40
2023-08-17T04:03:34.871Z,8.60
2023-08-17T04:04:35.115Z,9.60
2023-08-17T04:05:34.770Z,12.20
2023-08-17T04:06:34.793Z,11.20
2023-08-17T04:07:34.781Z,12.40
2023-08-17T04:08:34.779Z,9.70
2023-08-17T04:09:35.463Z,11.90
2023-08-17T04:10:34.753Z,10.70
2023-08-17T04:11:34.730Z,9.10
2023-08-17T04:12:34.704Z,17.00
2023-08-17T04:13:34.723Z,10.60
2023-08-17T04:14:34.697Z,11.90
2023-08-17T04:15:34.689Z,10.90
2023-08-17T04:16:34.781Z,14.10
2023-08-17T04:17:34.720Z,9.70
2023-08-17T04:18:34.650Z,14.80
2023-08-17T04:19:34.643Z,10.60
2023-08-17T04:20:34.665Z,10.10
2023-08-17T04:21:35.380Z,12.60
2023-08-17T04:22:35.409Z,16.20
2023-08-17T04:23:35.194Z,9.90
2023-08-17T04:24:34.617Z,11.20
2023-08-17T04:25:34.585Z,10.10
2023-08-17T04:26:34.783Z,10.70
2023-08-17T04:27:34.570Z,9.40
2023-08-17T04:28:34.521Z,8.80
2023-08-17T04:29:34.583Z,12.20
2023-08-17T04:30:34.504Z,9.80
2023-08-17T04:31:34.580Z,7.20
2023-08-17T04:32:34.529Z,10.00
2023-08-17T04:33:34.480Z,9.10
2023-08-17T04:34:34.667Z,9.00
2023-08-17T04:35:34.474Z,9.00
2023-08-17T04:36:34.690Z,6.80
2023-08-17T04:37:34.438Z,9.20
2023-08-17T04:38:35.966Z,8.60
2023-08-17T04:39:34.385Z,9.10
2023-08-17T04:40:34.407Z,9.60
2023-08-17T04:41:35.149Z,8.70
2023-08-17T04:42:35.299Z,9.00
2023-08-17T04:43:35.194Z,9.80
2023-08-17T04:44:34.400Z,9.40
2023-08-17T04:45:34.416Z,8.80
2023-08-17T04:46:34.309Z,7.80
2023-08-17T04:47:34.377Z,8.90
2023-08-17T04:48:34.304Z,11.60
2023-08-17T04:49:34.375Z,9.10
2023-08-17T04:50:34.282Z,9.70
2023-08-17T04:51:34.295Z,11.00
2023-08-17T04:52:34.261Z,8.70
2023-08-17T04:53:34.233Z,6.20
2023-08-17T04:54:34.327Z,8.70
2023-08-17T04:55:34.250Z,7.50
2023-08-17T04:56:34.216Z,9.90
2023-08-17T04:57:34.225Z,8.10
2023-08-17T04:58:35.051Z,8.60
2023-08-17T04:59:34.311Z,10.60
2023-08-17T05:00:34.160Z,9.30
2023-08-17T05:01:34.177Z,10.70
2023-08-17T05:02:34.238Z,10.20
2023-08-17T05:03:34.558Z,8.60
2023-08-17T05:04:34.252Z,9.90
2023-08-17T05:05:34.101Z,8.80
2023-08-17T05:06:35.069Z,11.60
2023-08-17T05:07:34.163Z,11.60
2023-08-17T05:08:34.071Z,11.30
2023-08-17T05:09:34.078Z,9.20
2023-08-17T05:10:34.055Z,12.70
2023-08-17T05:11:34.239Z,11.70
2023-08-17T05:12:34.050Z,13.30
2023-08-17T05:13:34.028Z,11.40
2023-08-17T05:14:34.017Z,10.50
2023-08-17T05:15:34.004Z,10.30
2023-08-17T05:16:34.048Z,13.90
2023-08-17T05:17:33.998Z,10.80
2023-08-17T05:18:33.995Z,13.40
2023-08-17T05:19:34.015Z,14.80
2023-08-17T05:20:34.042Z,20.30
2023-08-17T05:21:34.043Z,19.60
2023-08-17T05:22:34.775Z,20.00
2023-08-17T05:23:34.692Z,18.40
2023-08-17T05:24:34.852Z,20.70
2023-08-17T05:25:33.893Z,16.90
2023-08-17T05:26:34.644Z,16.80
2023-08-17T05:27:33.860Z,16.70
2023-08-17T05:28:33.843Z,18.00
2023-08-17T05:29:33.864Z,16.10
2023-08-17T05:30:33.823Z,14.30
2023-08-17T05:31:34.772Z,14.00
2023-08-17T05:32:33.865Z,15.60
2023-08-17T05:33:33.800Z,15.30
2023-08-17T05:34:33.870Z,12.90
2023-08-17T05:35:33.767Z,13.20
2023-08-17T05:36:33.757Z,14.80
2023-08-17T05:37:33.765Z,15.30
2023-08-17T05:38:33.731Z,16.60
2023-08-17T05:39:35.326Z,17.80
2023-08-17T05:40:33.720Z,12.80
2023-08-17T05:41:33.723Z,12.80
2023-08-17T05:42:33.687Z,12.20
2023-08-17T05:43:33.702Z,15.40
2023-08-17T05:44:33.674Z,15.40
2023-08-17T05:45:33.665Z,13.30
2023-08-17T05:46:33.684Z,16.00
2023-08-17T05:47:33.654Z,14.90
2023-08-17T05:48:33.626Z,13.80
2023-08-17T05:49:33.651Z,15.00
2023-08-17T05:50:33.582Z,16.30
2023-08-17T05:51:33.585Z,13.90
2023-08-17T05:52:33.648Z,17.10
2023-08-17T05:53:33.566Z,14.60
2023-08-17T05:54:33.544Z,13.10
2023-08-17T05:55:33.547Z,18.10
2023-08-17T05:56:34.348Z,15.00
2023-08-17T05:57:33.531Z,12.10
2023-08-17T05:58:33.486Z,14.40
2023-08-17T05:59:33.497Z,11.00
2023-08-17T06:00:33.482Z,13.30
2023-08-17T06:01:33.533Z,14.00
2023-08-17T06:02:33.521Z,13.70
2023-08-17T06:03:33.446Z,14.00
2023-08-17T06:04:33.453Z,14.60
2023-08-17T06:05:34.046Z,12.50
2023-08-17T06:06:33.440Z,12.60
2023-08-17T06:07:33.412Z,12.10
2023-08-17T06:08:33.390Z,16.30
2023-08-17T06:09:33.372Z,12.00
2023-08-17T06:10:33.373Z,12.10
2023-08-17T06:11:33.384Z,10.70
2023-08-17T06:12:33.356Z,13.30
2023-08-17T06:13:33.319Z,13.50
2023-08-17T06:14:33.374Z,11.10
2023-08-17T06:15:33.372Z,12.70
2023-08-17T06:16:33.402Z,9.00
2023-08-17T06:17:33.284Z,9.30
2023-08-17T06:18:33.275Z,10.60
2023-08-17T06:19:33.430Z,13.50
2023-08-17T06:20:33.280Z,11.80
2023-08-17T06:21:33.982Z,11.50
2023-08-17T06:22:33.251Z,8.30
2023-08-17T06:23:33.218Z,12.20
2023-08-17T06:24:33.950Z,9.00
2023-08-17T06:25:34.121Z,9.60
2023-08-17T06:26:33.208Z,10.50
2023-08-17T06:27:33.258Z,8.30
2023-08-17T06:28:33.162Z,8.40
2023-08-17T06:29:33.166Z,13.40
2023-08-17T06:30:33.134Z,8.70
2023-08-17T06:31:33.160Z,9.60
2023-08-17T06:32:33.168Z,15.30
2023-08-17T06:33:33.127Z,12.90
2023-08-17T06:34:34.457Z,8.40
2023-08-17T06:35:33.077Z,14.50
2023-08-17T06:36:33.066Z,11.20
2023-08-17T06:37:33.064Z,9.60
2023-08-17T06:38:33.035Z,10.50
2023-08-17T06:39:33.041Z,9.40
2023-08-17T06:40:33.002Z,11.40
2023-08-17T06:41:33.086Z,8.20
2023-08-17T06:42:32.990Z,12.60
2023-08-17T06:43:32.994Z,9.00
2023-08-17T06:44:33.016Z,7.50
2023-08-17T06:45:32.986Z,8.10
2023-08-17T06:46:33.892Z,12.70
2023-08-17T06:47:32.999Z,8.70
2023-08-17T06:48:32.935Z,10.60
2023-08-17T06:49:32.917Z,9.60
2023-08-17T06:50:32.909Z,11.10
2023-08-17T06:51:32.896Z,11.00
2023-08-17T06:52:32.944Z,7.30
2023-08-17T06:53:32.857Z,8.60
2023-08-17T06:54:32.857Z,8.30
2023-08-17T06:55:32.848Z,7.60
2023-08-17T06:56:32.859Z,10.20
2023-08-17T06:57:32.835Z,10.50
2023-08-17T06:58:32.890Z,7.80
2023-08-17T06:59:32.869Z,7.40
2023-08-17T07:00:32.864Z,8.70
2023-08-17T07:01:32.801Z,7.70
2023-08-17T07:02:46.592Z,8.10
2023-08-17T07:03:33.808Z,7.70
2023-08-17T07:04:32.768Z,6.80
2023-08-17T07:05:32.812Z,5.70
2023-08-17T07:06:33.500Z,8.00
2023-08-17T07:07:32.734Z,6.00
2023-08-17T07:08:32.706Z,5.60
2023-08-17T07:09:32.766Z,5.60
2023-08-17T07:10:32.728Z,4.40
2023-08-17T07:11:32.713Z,7.60
2023-08-17T07:12:32.676Z,7.80
2023-08-17T07:13:32.657Z,8.20
2023-08-17T07:14:32.666Z,7.80
2023-08-17T07:15:32.657Z,11.30
2023-08-17T07:16:32.649Z,10.50
2023-08-17T07:17:32.671Z,13.20
2023-08-17T07:18:32.614Z,7.50
2023-08-17T07:19:52.574Z,7.60
2023-08-17T07:20:33.574Z,8.00
2023-08-17T07:21:32.579Z,7.00
2023-08-17T07:22:32.609Z,6.50
2023-08-17T07:23:32.586Z,7.90
2023-08-17T07:24:32.533Z,4.90
2023-08-17T07:25:32.523Z,8.00
2023-08-17T07:26:33.369Z,7.80
2023-08-17T07:27:33.276Z,10.70
2023-08-17T07:28:32.489Z,11.30
2023-08-17T07:29:32.504Z,12.00
2023-08-17T07:30:32.505Z,8.10
2023-08-17T07:31:32.501Z,10.80
2023-08-17T07:32:32.483Z,7.40
2023-08-17T07:33:32.476Z,11.00
2023-08-17T07:34:32.421Z,10.30
2023-08-17T07:35:32.419Z,6.90
2023-08-17T07:36:32.421Z,9.10
2023-08-17T07:37:32.374Z,7.60
2023-08-17T07:38:32.384Z,5.90
2023-08-17T07:39:32.419Z,6.40
2023-08-17T07:40:32.520Z,7.30
2023-08-17T07:41:32.373Z,9.60
2023-08-17T07:42:32.574Z,5.50
2023-08-17T07:43:32.356Z,6.80
2023-08-17T07:44:32.310Z,5.10
2023-08-17T07:45:32.431Z,5.80
2023-08-17T07:46:32.314Z,7.60
2023-08-17T07:47:32.631Z,6.80
2023-08-17T07:48:32.257Z,6.30
2023-08-17T07:50:33.218Z,6.50
2023-08-17T07:51:32.245Z,6.00
2023-08-17T07:52:32.213Z,5.00
2023-08-17T07:53:32.201Z,7.80
2023-08-17T07:54:32.197Z,5.80
2023-08-17T07:55:32.224Z,6.10
2023-08-17T07:56:32.187Z,6.50
2023-08-17T07:57:32.169Z,4.10
2023-08-17T07:58:32.179Z,6.10
2023-08-17T07:59:32.122Z,5.30
2023-08-17T08:00:32.115Z,3.90
2023-08-17T08:01:32.182Z,7.00
2023-08-17T08:02:32.235Z,7.80
2023-08-17T08:03:32.108Z,5.10
2023-08-17T08:04:32.094Z,6.10
2023-08-17T08:05:32.085Z,5.50
2023-08-17T08:06:32.884Z,6.10
2023-08-17T08:07:33.023Z,5.80
2023-08-17T08:08:32.108Z,6.30
2023-08-17T08:09:32.076Z,6.10
2023-08-17T08:10:32.006Z,5.30
2023-08-17T08:11:32.055Z,6.30
2023-08-17T08:12:32.047Z,5.50
2023-08-17T08:13:31.957Z,4.60
2023-08-17T08:14:31.994Z,6.70
2023-08-17T08:15:31.932Z,4.30
2023-08-17T08:16:32.096Z,5.80
2023-08-17T08:17:32.179Z,3.30
2023-08-17T08:18:31.939Z,7.60
2023-08-17T08:19:31.887Z,3.70
2023-08-17T08:20:31.889Z,4.30
2023-08-17T08:21:31.887Z,4.00
2023-08-17T08:22:31.904Z,4.40
2023-08-17T08:23:31.852Z,3.90
2023-08-17T08:25:31.859Z,3.30
2023-08-17T08:26:31.823Z,4.60
2023-08-17T08:27:31.857Z,3.80
2023-08-17T08:28:32.534Z,4.40
2023-08-17T08:29:31.800Z,5.90
2023-08-17T08:30:31.788Z,4.00
2023-08-17T08:31:31.803Z,4.40
2023-08-17T08:32:31.800Z,5.40
2023-08-17T08:33:32.567Z,4.90
2023-08-17T08:34:31.793Z,5.40
2023-08-17T08:35:31.839Z,5.40
2023-08-17T08:36:31.781Z,7.10
2023-08-17T08:37:31.756Z,4.30
2023-08-17T08:38:31.675Z,4.70
2023-08-17T08:39:32.503Z,5.30
2023-08-17T08:40:31.735Z,4.20
2023-08-17T08:41:31.697Z,5.20
2023-08-17T08:42:31.656Z,5.50
2023-08-17T08:43:31.640Z,5.00
2023-08-17T08:44:31.608Z,4.90
2023-08-17T08:45:31.717Z,4.60
2023-08-17T08:46:31.624Z,4.70
2023-08-17T08:47:31.750Z,3.80
2023-08-17T08:48:31.592Z,3.80
2023-08-17T08:49:32.127Z,5.10
2023-08-17T08:50:31.567Z,4.90
2023-08-17T08:51:31.626Z,4.00
2023-08-17T08:52:31.539Z,4.10
2023-08-17T08:53:36.281Z,3.90
2023-08-17T08:54:37.823Z,4.70
2023-08-17T08:55:32.519Z,5.10
2023-08-17T08:56:31.487Z,3.30
2023-08-17T08:57:31.502Z,3.80
2023-08-17T08:58:31.474Z,4.40
2023-08-17T08:59:31.447Z,4.00
2023-08-17T09:00:31.476Z,5.10
2023-08-17T09:01:31.489Z,4.10
2023-08-17T09:02:31.417Z,4.00
2023-08-17T09:03:31.417Z,3.40
2023-08-17T09:04:31.408Z,5.00
2023-08-17T09:05:31.399Z,3.70
2023-08-17T09:06:31.405Z,5.20
2023-08-17T09:07:31.377Z,5.00
2023-08-17T09:08:32.302Z,4.00
2023-08-17T09:09:32.193Z,4.30
2023-08-17T09:10:31.995Z,5.50
2023-08-17T09:11:32.399Z,5.00
2023-08-17T09:12:39.282Z,4.00
2023-08-17T09:13:32.319Z,3.70
2023-08-17T09:14:31.284Z,6.60
2023-08-17T09:15:31.269Z,4.10
2023-08-17T09:16:31.473Z,4.70
2023-08-17T09:17:31.302Z,2.90
2023-08-17T09:18:31.235Z,8.00
2023-08-17T09:19:31.228Z,2.70
2023-08-17T09:20:31.343Z,4.10
2023-08-17T09:21:31.244Z,5.30
2023-08-17T09:22:31.259Z,3.10
2023-08-17T09:23:31.194Z,4.70
2023-08-17T09:24:31.227Z,3.00
2023-08-17T09:25:31.187Z,4.20
2023-08-17T09:26:31.208Z,6.60
2023-08-17T09:27:31.218Z,3.40
2023-08-17T09:28:31.684Z,3.60
2023-08-17T09:29:32.102Z,3.50
2023-08-17T09:30:31.961Z,5.50
2023-08-17T09:31:31.138Z,3.60
2023-08-17T09:32:31.267Z,4.50
2023-08-17T09:33:31.077Z,3.60
2023-08-17T09:34:31.067Z,3.00
2023-08-17T09:35:31.096Z,2.70
2023-08-17T09:36:31.036Z,2.90
2023-08-17T09:37:31.128Z,2.60
2023-08-17T09:38:31.037Z,3.90
2023-08-17T09:39:31.004Z,3.60
2023-08-17T09:40:31.011Z,2.80
2023-08-17T09:41:31.028Z,5.80
2023-08-17T09:42:31.063Z,3.20
2023-08-17T09:43:30.975Z,3.60
2023-08-17T09:44:30.978Z,4.00
2023-08-17T09:45:30.936Z,2.40
2023-08-17T09:46:31.022Z,2.80
2023-08-17T09:47:30.985Z,3.70
2023-08-17T09:48:33.746Z,6.50
2023-08-17T09:50:31.655Z,4.80
2023-08-17T09:51:30.966Z,4.80
2023-08-17T09:52:31.089Z,4.50
2023-08-17T09:53:30.875Z,5.20
2023-08-17T09:54:30.811Z,4.70
2023-08-17T09:55:31.188Z,3.00
2023-08-17T09:56:30.884Z,5.20
2023-08-17T09:57:30.865Z,3.10
2023-08-17T09:58:31.574Z,4.00
2023-08-17T09:59:30.769Z,3.60
2023-08-17T10:00:30.792Z,6.40
2023-08-17T10:01:30.755Z,6.80
2023-08-17T10:02:30.784Z,8.00
2023-08-17T10:03:30.737Z,5.00
2023-08-17T10:04:30.735Z,5.10
2023-08-17T10:05:30.722Z,4.30
2023-08-17T10:06:30.706Z,6.80
2023-08-17T10:07:33.376Z,4.50
2023-08-17T10:08:30.716Z,6.40
2023-08-17T10:09:30.696Z,8.00
2023-08-17T10:10:31.447Z,6.30
2023-08-17T10:11:30.711Z,5.70
2023-08-17T10:12:30.790Z,6.00
2023-08-17T10:13:30.683Z,4.60
2023-08-17T10:14:30.649Z,3.70
2023-08-17T10:15:30.608Z,4.90
2023-08-17T10:16:31.445Z,4.20
2023-08-17T10:17:30.637Z,3.70
2023-08-17T10:18:30.598Z,4.60
2023-08-17T10:19:30.558Z,5.40
2023-08-17T10:20:30.564Z,6.30
2023-08-17T10:21:30.583Z,11.80
2023-08-17T10:22:30.529Z,8.40
2023-08-17T10:23:30.527Z,8.00
2023-08-17T10:24:30.491Z,7.10
2023-08-17T10:25:30.490Z,5.60
2023-08-17T10:26:30.567Z,3.50
2023-08-17T10:27:30.500Z,4.30
2023-08-17T10:28:30.460Z,4.30
2023-08-17T10:29:31.240Z,3.80
2023-08-17T10:30:30.441Z,3.50
2023-08-17T10:31:30.450Z,5.20
2023-08-17T10:32:30.724Z,6.80
2023-08-17T10:33:30.401Z,4.20
2023-08-17T10:34:30.405Z,5.00
2023-08-17T10:35:30.382Z,4.30
2023-08-17T10:36:30.384Z,4.30
2023-08-17T10:37:30.377Z,4.10
2023-08-17T10:38:30.695Z,4.70
2023-08-17T10:39:30.508Z,3.60
2023-08-17T10:40:30.346Z,3.00
2023-08-17T10:41:30.325Z,3.90
2023-08-17T10:42:30.302Z,3.10
2023-08-17T10:43:30.283Z,4.10
2023-08-17T10:44:30.499Z,2.30
2023-08-17T10:45:32.355Z,2.50
2023-08-17T10:46:31.722Z,2.80
2023-08-17T10:47:35.001Z,3.70
2023-08-17T10:49:31.214Z,2.50
2023-08-17T10:50:31.029Z,4.30
2023-08-17T10:51:30.213Z,4.40
2023-08-17T10:52:30.255Z,2.50
2023-08-17T10:53:30.238Z,2.40
2023-08-17T10:54:30.193Z,3.10
2023-08-17T10:55:30.158Z,4.50
2023-08-17T10:56:30.160Z,2.30
2023-08-17T10:57:30.221Z,4.40
2023-08-17T10:58:30.129Z,3.00
2023-08-17T10:59:30.142Z,3.70
2023-08-17T11:00:30.147Z,4.60
2023-08-17T11:01:30.117Z,4.30
2023-08-17T11:02:32.154Z,3.40
2023-08-17T11:03:30.713Z,4.40
2023-08-17T11:04:32.487Z,2.30
2023-08-17T11:05:34.078Z,4.40
2023-08-17T11:07:31.067Z,2.80
2023-08-17T11:08:30.107Z,3.90
2023-08-17T11:09:32.215Z,3.40
2023-08-17T11:10:30.974Z,3.20
2023-08-17T11:11:30.021Z,2.80
2023-08-17T11:12:30.201Z,3.90
2023-08-17T11:13:30.079Z,3.70
2023-08-17T11:14:29.951Z,2.80
2023-08-17T11:15:29.932Z,2.60
2023-08-17T11:16:30.013Z,3.00
2023-08-17T11:17:29.989Z,2.60
2023-08-17T11:18:29.904Z,3.20
2023-08-17T11:19:29.906Z,4.30
2023-08-17T11:20:29.917Z,3.90
2023-08-17T11:21:29.858Z,2.30
2023-08-17T11:22:30.057Z,4.20
2023-08-17T11:23:29.935Z,3.20
2023-08-17T11:24:30.219Z,2.40
2023-08-17T11:25:33.087Z,3.50
2023-08-17T11:26:35.502Z,2.70
2023-08-17T11:27:30.814Z,2.00
2023-08-17T11:28:29.811Z,4.10
2023-08-17T11:29:30.085Z,3.00
2023-08-17T11:30:29.778Z,3.40
2023-08-17T11:31:29.787Z,2.50
2023-08-17T11:32:30.684Z,3.10
2023-08-17T11:33:29.747Z,1.90
2023-08-17T11:34:29.724Z,2.20
2023-08-17T11:35:29.723Z,3.40
2023-08-17T11:36:29.728Z,2.90
2023-08-17T11:37:29.801Z,3.00
2023-08-17T11:38:29.675Z,2.20
2023-08-17T11:39:29.685Z,3.60
2023-08-17T11:40:29.674Z,2.70
2023-08-17T11:41:29.757Z,3.10
2023-08-17T11:42:30.048Z,2.70
2023-08-17T11:43:29.639Z,2.20
2023-08-17T11:44:29.635Z,2.50
2023-08-17T11:45:29.712Z,2.30
2023-08-17T11:46:30.077Z,15.00
2023-08-17T11:47:32.589Z,4.00
2023-08-17T11:48:29.763Z,3.00
2023-08-17T11:49:29.573Z,2.50
2023-08-17T11:50:29.597Z,2.70
2023-08-17T11:51:29.583Z,2.30
2023-08-17T11:52:29.745Z,3.90
2023-08-17T11:53:30.283Z,3.10
2023-08-17T11:54:29.580Z,4.30
2023-08-17T11:55:29.575Z,3.00
2023-08-17T11:56:29.584Z,2.80
2023-08-17T11:57:29.469Z,4.80
2023-08-17T11:58:29.597Z,3.00
2023-08-17T11:59:29.453Z,2.80
2023-08-17T12:00:29.490Z,2.40
2023-08-17T12:01:29.507Z,3.20
2023-08-17T12:02:29.973Z,3.90
2023-08-17T12:03:29.523Z,2.90
2023-08-17T12:04:29.431Z,5.30
2023-08-17T12:05:29.433Z,2.90
2023-08-17T12:06:29.400Z,2.20
2023-08-17T12:07:29.548Z,2.20
2023-08-17T12:08:29.373Z,2.00
2023-08-17T12:09:29.368Z,2.70
2023-08-17T12:10:29.326Z,2.20
2023-08-17T12:11:29.334Z,1.80
2023-08-17T12:12:30.129Z,3.00
2023-08-17T12:13:30.129Z,3.00
2023-08-17T12:14:29.327Z,2.30
2023-08-17T12:15:29.352Z,6.20
2023-08-17T12:16:29.282Z,2.20
2023-08-17T12:17:29.320Z,1.90
2023-08-17T12:18:29.293Z,4.70
2023-08-17T12:19:29.313Z,2.50
2023-08-17T12:20:29.241Z,2.60
2023-08-17T12:21:29.285Z,2.80
2023-08-17T12:22:29.718Z,2.30
2023-08-17T12:23:29.200Z,2.50
2023-08-17T12:24:29.243Z,2.50
2023-08-17T12:25:29.332Z,2.50
2023-08-17T12:26:29.191Z,3.80
2023-08-17T12:27:29.175Z,3.30
2023-08-17T12:28:29.152Z,2.50
2023-08-17T12:29:29.209Z,3.60
2023-08-17T12:30:29.168Z,3.00
2023-08-17T12:31:29.147Z,3.40
2023-08-17T12:32:29.395Z,2.60
2023-08-17T12:33:29.394Z,2.30
2023-08-17T12:34:29.059Z,2.30
2023-08-17T12:35:29.090Z,2.50
2023-08-17T12:36:29.080Z,3.60
2023-08-17T12:37:29.076Z,2.20
2023-08-17T12:38:29.061Z,2.30
2023-08-17T12:39:29.098Z,3.20
2023-08-17T12:40:29.021Z,3.40
2023-08-17T12:41:29.023Z,4.50
2023-08-17T12:42:29.336Z,2.00
2023-08-17T12:43:29.000Z,2.20
2023-08-17T12:44:28.987Z,3.80
2023-08-17T12:45:28.974Z,3.20
2023-08-17T12:46:32.594Z,3.60
2023-08-17T12:47:34.739Z,4.30
2023-08-17T12:48:30.012Z,2.30
2023-08-17T12:49:28.944Z,3.50
2023-08-17T12:50:28.979Z,2.30
2023-08-17T12:51:29.243Z,2.40
2023-08-17T12:52:29.172Z,3.60
2023-08-17T12:53:28.924Z,2.40
2023-08-17T12:54:28.905Z,2.50
2023-08-17T12:55:28.866Z,3.40
2023-08-17T12:56:28.859Z,2.80
2023-08-17T12:57:28.911Z,3.10
2023-08-17T12:58:28.869Z,2.40
2023-08-17T12:59:28.857Z,4.40
2023-08-17T13:00:28.840Z,2.00
2023-08-17T13:01:28.891Z,3.00
2023-08-17T13:02:29.265Z,2.80
2023-08-17T13:03:28.797Z,2.10
2023-08-17T13:04:28.761Z,3.60
2023-08-17T13:05:28.745Z,2.30
2023-08-17T13:06:39.798Z,2.50
2023-08-17T13:07:29.784Z,1.80
2023-08-17T13:08:28.893Z,2.00
2023-08-17T13:09:28.758Z,4.10
2023-08-17T13:10:28.661Z,3.80
2023-08-17T13:11:28.726Z,2.40
2023-08-17T13:12:28.966Z,4.30
2023-08-17T13:13:28.954Z,4.10
2023-08-17T13:14:28.720Z,2.50
2023-08-17T13:15:28.672Z,2.20
2023-08-17T13:16:28.656Z,2.50
2023-08-17T13:17:28.786Z,1.80